F2JD

Lookups:   6391
| Bureau | Direct | LoTW | eQSL
Name:Gerard
QTH:Pugny Chatenod
Country:France
Grid:JN25XQ
 
Web:
Email:
Gerard Jacot
Boucle De L'observatoire Le Mont Revard
Pugny Chatenod 73100
France
 
  
  
ITU: 27
CQ:14
 
  
  
   
QSL via:


F2JD-   For all Dxpeditions  >>QSL via F6AJA

Ver: http://f2jd.free.fr

 

F6AJA

Jean Michel Duthilleul

515 rue du Petit Hem

59870 Bouvignies

France

Source Activity Date time
DXC DX de VA2TTA: 10108.0 HR5/F2JD QSX 10109.00 CW 0046Z 2017-03-24 00:46:00
DXC DX de N6QQ: 10108.0 HR5/F2JD QSX 10109 0042Z 2017-03-24 00:42:00
DXC DX de K0TC: 10108.0 HR5/F2JD up 1 0041Z 2017-03-24 00:41:00
DXC DX de N0IRM: 10108.0 HR5/F2JD 5nn Sig in SW MO 0033Z 2017-03-24 00:33:00
DXC DX de W3LPL: 10108.0 HR5/F2JD Heard in PA and KS 0030Z 2017-03-24 00:30:00
DXC DX de K4MIL: 10135.0 HR5/F2JD RTTY 0007Z 2017-03-24 00:07:00
DXC DX de W3LPL: 10135.0 HR5/F2JD RTTY Heard in MD and SC 0002Z 2017-03-24 00:02:00
DXC DX de YV5OIE: 10135.0 HR5/F2JD rtty 0000Z 2017-03-24 00:00:00
DXC DX de WC2L: 10135.0 HR5/F2JD RTTY 2355Z 2017-03-23 23:55:00
DXC DX de F4ENK: 10135.0 HR5/F2JD cq 2349Z 2017-03-23 23:49:00
DXC DX de KX4WB: 10134.0 HR5/F2JD 2347Z 2017-03-23 23:47:00
DXC DX de XE2EX: 10135.0 HR5/F2JD RTTY simplex 2346Z 2017-03-23 23:46:00
DXC DX de W3LPL: 10133.0 HR5/F2JD RTTY Heard in MA and MD 2338Z 2017-03-23 23:38:00
DXC DX de F2JD: 10135.0 HR5/F2JD RTTY 2337Z 2017-03-23 23:37:00
DXC DX de K4TR: 10135.0 HR5/F2JD 2206Z 2017-03-23 22:06:00
DXC DX de W3LPL: 10135.0 HR5/F2JD RTTY Heard in NH and MA 2201Z 2017-03-23 22:01:00
DXC DX de K6PO: 21016.0 HR5/F2JD strong socal simplex CW 1705Z 2017-03-23 17:05:00
DXC DX de W3LPL: 21016.0 HR5/F2JD Heard in NV 1703Z 2017-03-23 17:03:00
DXC DX de F2JD: 24893.0 HR5/F2JD 1658Z 2017-03-23 16:58:00
DXC DX de XE1H: 10142.1 HR5/F2JD RTTY 0025Z 2017-03-23 00:25:00
DXC DX de W3LPL: 10142.1 HR5/F2JD RTTY Heard in MA and MD 0016Z 2017-03-23 00:16:00
DXC DX de W3LPL: 10120.0 HR5/F2JD Heard in NC and WI 0002Z 2017-03-23 00:02:00
DXC DX de PU2SDX: 24962.0 HR5/F2JD 5/9 ..tnx mr gerard 73s 2332Z 2017-03-22 23:32:00
DXC DX de PY2OSD: 24962.0 HR5/F2JD tks Gerard 73 buenos DX´s 23 2017-03-22 23:28:00
DXC DX de HK4DLO: 24962.0 HR5/F2JD 59 in colombia 2328Z 2017-03-22 23:28:00
DXC DX de PY5SP: 24962.0 HR5/F2JD 5/9 in GG54LN strong signal 2017-03-22 23:22:00
DXC DX de PY2604SWL: 24962.0 HR5/F2JD good signal 2321Z 2017-03-22 23:21:00
DXC DX de PY2CX: 24962.0 HR5/F2JD 2320Z 2017-03-22 23:20:00
DXC DX de PY4HI: 24962.0 HR5/F2JD CQ CQ CQ - TNX GERALDO 73\'S 2017-03-22 23:11:00
DXC DX de PU2KNM: 24962.0 HR5/F2JD s5/9 in gg55 cq dx 2311Z 2017-03-22 23:11:00
DXC DX de PU5LHF: 24962.0 HR5/F2JD Gracias Gerard 5/9+10 73 cq dx cq dx 2017-03-22 23:09:00
DXC DX de PU1VFC: 24962.0 HR5/F2JD cq cq dx 73 Gerard 2303Z 2017-03-22 23:03:00
DXC DX de PU1KGG: 24962.0 HR5/F2JD Gracias Gerard. 2259Z 2017-03-22 22:59:00
DXC DX de WP3EF: 24962.0 HR5/F2JD 2253Z 2017-03-22 22:53:00
DXC DX de F2JD: 24962.0 HR5/F2JD CQ 2251Z 2017-03-22 22:51:00
DXC DX de PU1KGG: 24892.0 HR5/F2JD Strong hr. TU UP1 2240Z 2017-03-22 22:40:00
DXC DX de W9FI: 24892.0 HR5/F2JD Much QSB up 1 2238Z 2017-03-22 22:38:00
DXC DX de PY2QT: 24892.0 HR5/F2JD UP 1 2236Z 2017-03-22 22:36:00
DXC DX de LU1AJH: 24892.0 HR5/F2JD up 1,merci 2228Z 2017-03-22 22:28:00
DXC DX de N0AH: 24892.0 HR5/F2JD up 1 2221Z 2017-03-22 22:21:00
DXC DX de W3LPL: 24891.8 HR5/F2JD Heard in KS 2218Z 2017-03-22 22:18:00
DXC DX de W3LPL: 24925.1 HR5/F2JD RTTY Heard in SC and MD 2205Z 2017-03-22 22:05:00
DXC DX de LU7HF: 24925.0 HR5/F2JD tnx 73 2205Z 2017-03-22 22:05:00
DXC DX de F2JD: 24925.0 HR5/F2JD RTTY 2154Z 2017-03-22 21:54:00
DXC DX de WK2X: 18100.0 HR5/F2JD CQing, loud, wkd 25 watts 1855 2017-03-22 18:55:00
DXC DX de N4QS: 18101.0 HR5/F2JD RTTY 1854Z 2017-03-22 18:54:00
DXC DX de VE3MZD: 18101.0 HR5/F2JD Simplex rtty 1854Z 2017-03-22 18:54:00
DXC DX de VE3CV: 18100.9 HR5/F2JD 1848Z 2017-03-22 18:48:00
DXC DX de W3LPL: 18101.0 HR5/F2JD RTTY Heard in MD and PA 1838Z 2017-03-22 18:38:00
DXC DX de IZ1BII: 3585.0 HR5/F2JD up 2.3 tnx qso 0437Z 2017-03-22 04:37:00
DXC DX de K0VC: 3585.0 HR5/F2JD up 2.5 0425Z 2017-03-22 04:25:00
DXC DX de HA3MN: 3585.0 HR5/F2JD RTTY, up3, tu Gerard 0423Z 2017-03-22 04:23:00
DXC DX de OK1FAV: 3585.0 HR5/F2JD 0422Z 2017-03-22 04:22:00
DXC DX de W6SFK: 3584.1 HR5/F2JD QSX 3587.20 UP 3.10 0405Z 2017-03-22 04:05:00
DXC DX de W4UEF: 3584.1 HR5/F2JD RTTY up 2 0359Z 2017-03-22 03:59:00
DXC DX de N7ELL: 3584.2 HR5/F2JD QSX 3586.90 0350Z 2017-03-22 03:50:00
DXC DX de XE2YWB: 3584.0 HR5/F2JD UP 2 0338Z 2017-03-22 03:38:00
DXC DX de AC4M: 3583.9 HR5/F2JD RTTY UP 2 0318Z 2017-03-22 03:18:00
DXC DX de W7TUS: 3584.2 HR5/F2JD RTTY - UP 2 - 599 in AZ 0316Z 2017-03-22 03:16:00
DXC DX de W0PV: 3584.9 HR5/F2JD RTTY Tnx! 0308Z 2017-03-22 03:08:00
DXC DX de CT1BXT: 3585.0 HR5/F2JD QSX 3585.96 UP .95 tks 0302Z 2017-03-22 03:02:00
DXC DX de W3LPL: 3585.0 HR5/F2JD RTTY Heard in MA 0256Z 2017-03-22 02:56:00
DXC DX de K9EL: 3582.8 HR5/F2JD RTTY 0206Z 2017-03-22 02:06:00
DXC DX de S58Q: 3582.0 HR5/F2JD Nice sig RY 0151Z 2017-03-22 01:51:00
DXC DX de W3LPL: 3582.8 HR5/F2JD RTTY Heard in MA and NH 0148Z 2017-03-22 01:48:00
DXC DX de IZ4JMA: 18083.9 HR5/F2JD FB OP tnx for patience ! 1948 2017-03-21 19:48:00
DXC DX de MI0SAI: 18084.0 HR5/F2JD cq up1 1944Z 2017-03-21 19:44:00
DXC DX de IT9DDS: 18084.0 HR5/F2JD Tnx +1 1925Z 2017-03-21 19:25:00
DXC DX de K6PO: 18084.0 HR5/F2JD up 1 CW 1907Z 2017-03-21 19:07:00
DXC DX de OE7AJH: 18084.0 HR5/F2JD UP! tnx de Andy 1854Z 2017-03-21 18:54:00
DXC DX de N4NQ: 18084.0 HR5/F2JD up 1 1851Z 2017-03-21 18:51:00
DXC DX de K5XQ: 18084.0 HR5/F2JD 599 into Al 1847Z 2017-03-21 18:47:00
DXC DX de SV3IBP: 18084.0 HR5/F2JD 1847Z 2017-03-21 18:47:00
DXC DX de EA2DT: 18084.0 HR5/F2JD QSX: 18085.0 1842Z 2017-03-21 18:42:00
DXC DX de HA3LI: 18084.0 HR5/F2JD up 1 1832Z 2017-03-21 18:32:00
DXC DX de W8EO: 18084.0 HR5/F2JD 599 in MI 1831Z 2017-03-21 18:31:00
DXC DX de K1SE: 18084.0 HR5/F2JD QSX up 1 1830Z 2017-03-21 18:30:00
DXC DX de K1SE: 18084.0 HR5/F2JD 1825Z 2017-03-21 18:25:00
DXC DX de W3LPL: 18084.0 HR5/F2JD Heard in WA 1823Z 2017-03-21 18:23:00
DXC DX de W3LPL: 24894.0 HR5/F2JD Heard in NH and MA 1811Z 2017-03-21 18:11:00
DXC DX de W3LPL: 24895.3 HR5/F2JD Heard in AB and NH 1803Z 2017-03-21 18:03:00
DXC DX de W3LPL: 1818.0 HR5/F2JD Heard in AZ and NV 1136Z 2017-03-21 11:36:00
DXC DX de W3LPL: 1819.0 HR5/F2JD Heard in CO and NV 1135Z 2017-03-21 11:35:00
DXC DX de K4IQJ: 1821.5 HR5/F2JD cqing on top of v6 1123Z 2017-03-21 11:23:00
DXC DX de W5IO: 1821.5 HR5/F2JD LOUD IN SARGENT TX 1104Z 2017-03-21 11:04:00
DXC DX de W8ATE: 1821.3 HR5/F2JD up 1 1058Z 2017-03-21 10:58:00
DXC DX de W3LPL: 1821.5 HR5/F2JD Heard in NC 1048Z 2017-03-21 10:48:00
DXC DX de N0FW: 1821.4 HR5/F2JD CQ 1047Z 2017-03-21 10:47:00
DXC DX de AC2AA: 10143.0 HR5/F2JD RTTY 2349Z 2017-03-20 23:49:00
DXC DX de W3LPL: 7085.0 HR5/F2JD RTTY Heard in NH and MD 2349Z 2017-03-20 23:49:00
DXC DX de W3LPL: 7088.0 HR5/F2JD RTTY Heard in NH and MD 2348Z 2017-03-20 23:48:00
DXC DX de AI9T: 10143.0 HR5/F2JD 2337Z 2017-03-20 23:37:00
DXC DX de VE1HQ: 10143.0 HR5/F2JD 2336Z 2017-03-20 23:36:00
DXC DX de US0ZZ: 10142.9 HR5/F2JD CQ 2332Z 2017-03-20 23:32:00
DXC DX de W3LPL: 10143.0 HR5/F2JD RTTY Heard in NH and SC 2321Z 2017-03-20 23:21:00
DXC DX de W3TZ: 18147.0 HR5/F2JD 2149Z 2017-03-20 21:49:00
DXC DX de K3NOQ: 18147.0 HR5/F2JD EM00<>EK54 2up 2144Z 2017-03-20 21:44:00
DXC DX de N5MTW: 18147.0 HR5/F2JD 2143Z 2017-03-20 21:43:00
DXC DX de KD6DW: 18147.0 HR5/F2JD 2140Z 2017-03-20 21:40:00
DXC DX de KC7KNY: 18147.0 HR5/F2JD 5/5 in Or 2130Z 2017-03-20 21:30:00
DXC DX de WA4WIP: 18147.0 HR5/F2JD 2127Z 2017-03-20 21:27:00
DXC DX de F6DXE: 18073.0 HR5/F2JD QSX 18074.0 UP 1.00 2028Z 2017-03-20 20:28:00
DXC DX de KK5RX: 18073.0 HR5/F2JD up 1 -- 59 in SE Georgia 2018Z 2017-03-20 20:18:00
DXC DX de K2KA: 18073.0 HR5/F2JD Gerard CQ up 1 2016Z 2017-03-20 20:16:00
DXC DX de K3KO: 18072.9 HR5/F2JD 2000Z 2017-03-20 20:00:00
DXC DX de KE0HWZ: 18073.0 HR5/F2JD Nice Sig FB OP THX QSO UP1 2017-03-20 19:52:00
DXC DX de WA6RWI: 18073.0 HR5/F2JD Ash sierras 1943Z 2017-03-20 19:43:00
DXC DX de W3LPL: 18073.0 HR5/F2JD Heard in WA and AZ 1928Z 2017-03-20 19:28:00
DXC DX de IT9LED: 18109.0 HR5/F2JD 1732Z 2017-03-20 17:32:00
DXC DX de W3LPL: 18109.0 HR5/F2JD RTTY Heard in PA and MD 1722Z 2017-03-20 17:22:00
DXC DX de N4TTE: 1821.5 HR5/F2JD Tnx up 1 1105Z 2017-03-17 11:05:00
DXC DX de HL5IVL: 1821.5 HR5/F2JD 1104Z 2017-03-17 11:04:00
DXC DX de W7FI: 1821.5 HR5/F2JD Correction 1100Z 2017-03-17 11:00:00
DXC DX de W7FI: 1818.5 HR5/F2JD UP 1 1056Z 2017-03-17 10:56:00
DXC DX de K4WI: 1821.6 HR5/F2JD QSX 1822.58 1039Z 2017-03-17 10:39:00
DXC DX de N4VN: 1821.5 HR5/F2JD UP 1 1036Z 2017-03-17 10:36:00
DXC DX de NR1R: 1821.4 HR5/F2JD 1030Z 2017-03-17 10:30:00
DXC DX de W3LPL: 1821.5 HR5/F2JD Heard in NJ 1028Z 2017-03-17 10:28:00
DXC DX de N4KG: 1822.0 HR5/F2JD 599+ALA - QSX UP 1 - CQ CQ 1124 2017-03-16 11:24:00
DXC DX de NY2PO: 1822.0 HR5/F2JD 1110Z 2017-03-16 11:10:00
DXC DX de W8HW: 1822.0 HR5/F2JD QSX 1823.00 CW 1106Z 2017-03-16 11:06:00
DXC DX de K7SCX: 1822.0 HR5/F2JD 599 CO - Up 1 1056Z 2017-03-16 10:56:00
DXC DX de W3LPL: 1822.0 HR5/F2JD Heard in NV and WI 1056Z 2017-03-16 10:56:00
DXC DX de OK1AMF: 3504.0 HR5/F2JD up 2 tnx 0536Z 2017-03-14 05:36:00
DXC DX de W3ATT: 3504.0 HR5/F2JD EU Only - blah, gn 0458Z 2017-03-14 04:58:00
DXC DX de SV4FFK: 3504.0 HR5/F2JD strong today up 1.6 0452Z 2017-03-14 04:52:00
DXC DX de W3RMS: 3504.0 HR5/F2JD 0451Z 2017-03-14 04:51:00
DXC DX de IZ8XQC: 3504.0 HR5/F2JD UP 0445Z 2017-03-14 04:45:00
DXC DX de F5LVL: 3504.0 HR5/F2JD UP CQ EUROPE SUPER SIGNAL g2RARD 2017-03-14 04:39:00
DXC DX de W3LPL: 3504.0 HR5/F2JD Heard in MA 0436Z 2017-03-14 04:36:00
DXC DX de K8WHA: 10146.0 HR5/F2JD Split up 2 rtty 0019Z 2017-03-14 00:19:00
DXC DX de W1SLF: 10147.0 HR5/F2JD RTTY up 1.4 0013Z 2017-03-14 00:13:00
DXC DX de N5KDA: 10147.0 HR5/F2JD up up 0005Z 2017-03-14 00:05:00
DXC DX de WC3W: 10147.0 HR5/F2JD Up thks 73! 2354Z 2017-03-13 23:54:00
DXC DX de N6QQ: 10147.0 HR5/F2JD QSX 10149.02 RTTY 2351Z 2017-03-13 23:51:00
DXC DX de PY7DJ: 10147.0 HR5/F2JD tu new one digital - rtty wrkd up 2 2017-03-13 23:50:00
DXC DX de W1GF: 10147.0 HR5/F2JD rtty, up 2343Z 2017-03-13 23:43:00
DXC DX de CT1AGS: 10147.0 HR5/F2JD tnx 599, 73 2337Z 2017-03-13 23:37:00
DXC DX de KI8JP: 10147.0 HR5/F2JD TNX 73 RTTY UP 2 2326Z 2017-03-13 23:26:00
DXC DX de W3LPL: 10147.0 HR5/F2JD RTTY Heard in MA and NH 2323Z 2017-03-13 23:23:00
DXC DX de HL5IVL: 1821.5 HR5/F2JD 1120Z 2017-03-13 11:20:00
DXC DX de W3LPL: 1821.5 HR5/F2JD Heard in AZ and VA 1106Z 2017-03-13 11:06:00
DXC DX de HL5IVL: 1821.5 HR5/F2JD 1136Z 2017-03-11 11:36:00
DXC DX de K4TR: 1821.4 HR5/F2JD 1130Z 2017-03-11 11:30:00
DXC DX de K3TN: 1821.5 HR5/F2JD up 1.1 1100Z 2017-03-11 11:00:00
DXC DX de N5OT: 1821.5 HR5/F2JD Listening Up 1 1049Z 2017-03-11 10:49:00
DXC DX de W4AAW: 1821.4 HR5/F2JD QSX 1822.60 1041Z 2017-03-11 10:41:00
DXC DX de W0FLS: 1821.4 HR5/F2JD QSX 1822.55 1028Z 2017-03-11 10:28:00
DXC DX de HL5IVL: 1821.5 HR5/F2JD copy here ... amazing 1022Z 2017-03-11 10:22:00
DXC DX de W3LPL: 1821.5 HR5/F2JD Heard in WI and AZ 1011Z 2017-03-11 10:11:00
DXC DX de F2JD: 1821.5 HR5/F2JD up1 1010Z 2017-03-11 10:10:00
DXC DX de K6MM: 1828.0 HR5/F2JD You copied me as K6MX 1039Z 2017-03-10 10:39:00
DXC DX de F2JD: 1828.0 HR5/F2JD 1025Z 2017-03-10 10:25:00
DXC DX de K3XA: 1827.8 HR5/F2JD 599 into Virginia near WDC 1004 2017-03-10 10:04:00
DXC DX de W3LPL: 1828.0 HR5/F2JD Heard in UT and WI 1001Z 2017-03-10 10:01:00
DXC DX de F8PDR: 1820.8 HR5/F2JD Mci Gerard pour le new 1 0624Z 2017-03-10 06:24:00
DXC DX de F6ARC: 1821.0 HR5/F2JD CQ 0607Z 2017-03-10 06:07:00
DXC DX de ON7PQ: 1821.0 HR5/F2JD cq ... 0606Z 2017-03-10 06:06:00
DXC DX de W3LPL: 21041.7 HR5/F2JD Heard in VA 1917Z 2017-03-09 19:17:00
DXC DX de WA6NHC: 1821.0 HR5/F2JD weak in NoCal, but there 0353Z 2017-03-09 03:53:00
DXC DX de N5CW: 1821.0 HR5/F2JD 0348Z 2017-03-09 03:48:00
DXC DX de SV8BHN: 1821.0 HR5/F2JD pse EU 0346Z 2017-03-09 03:46:00
DXC DX de W3LPL: 1822.0 HR5/F2JD Heard in KS and PA 0340Z 2017-03-09 03:40:00
DXC DX de K1USA: 1821.0 HR5/F2JD tu 5nn in MO 73 simplex 0337Z 2017-03-09 03:37:00
DXC DX de N0TR: 1821.0 HR5/F2JD Tnx. Gerard 0321Z 2017-03-09 03:21:00
DXC DX de K2BB: 1821.0 HR5/F2JD 599 in NJ 0307Z 2017-03-09 03:07:00
DXC DX de W3LPL: 1821.0 HR5/F2JD Heard in NC 0304Z 2017-03-09 03:04:00
DXC DX de F2JD: 1821.0 HR5/F2JD 0049Z 2017-03-09 00:49:00
DXC DX de IZ1POF: 18072.0 HR5/F2JD Sorry Correct Call 1753Z 2017-03-08 17:53:00
DXC DX de WB4X: 18072.0 HR5/F2JD 1734Z 2017-03-08 17:34:00
DXC DX de EA7ST: 18072.0 HR5/F2JD CALL CORRECTION 1733Z 2017-03-08 17:33:00
DXC DX de KJ9X: 18072.0 HR5/F2JD 1731Z 2017-03-08 17:31:00
DXC DX de FY5KE: 18072.0 HR5/F2JD Gerard 1729Z 2017-03-08 17:29:00
DXC DX de W3LPL: 18072.0 HR5/F2JD Heard in NC and WI 1723Z 2017-03-08 17:23:00
DXC DX de HL5IVL: 1821.0 HR5/F2JD seeyou, gd friend 1203Z 2017-03-08 12:03:00
DXC DX de F2JD: 1821.0 HR5/F2JD sorry daytime 73 1201Z 2017-03-08 12:01:00
DXC DX de HL5IVL: 1821.0 HR5/F2JD coming up 1159Z 2017-03-08 11:59:00
DXC DX de F2JD: 1821.0 HR5/F2JD noise s4/6 here 1159Z 2017-03-08 11:59:00
DXC DX de W0BBI: 1821.0 HR5/F2JD up 1 Tnx Gerard 1142Z 2017-03-08 11:42:00
DXC DX de KG9Z: 1821.0 HR5/F2JD up 1 Stateside CQn on top!! 11 2017-03-08 11:36:00
DXC DX de F2JD: 1821.0 HR5/F2JD vy noisy 1130Z 2017-03-08 11:30:00
DXC DX de F2JD: 1921.0 HR5/F2JD vy noisy this morning 1129Z 2017-03-08 11:29:00
DXC DX de W4FOA: 1821.0 HR5/F2JD Gerard CQing UP 1 1122Z 2017-03-08 11:22:00
DXC DX de HL2CFY: 1822.0 HR5/F2JD PSE SPLIT 1118Z 2017-03-08 11:18:00
DXC DX de HL5IVL: 1822.0 HR5/F2JD weak &qrm, plse split 1115Z 2017-03-08 11:15:00
DXC DX de N4VN: 1821.0 HR5/F2JD UP 1 1108Z 2017-03-08 11:08:00
DXC DX de TI7XP: 1821.0 HR5/F2JD WILL WORK 50MHZ ? 1107Z 2017-03-08 11:07:00
DXC DX de JA7NI: 1821.0 HR5/F2JD tnx 1103Z 2017-03-08 11:03:00
DXC DX de F2JD: 1821.0 HR5/F2JD 1055Z 2017-03-08 10:55:00
DXC DX de SV8BHN: 1821.0 HR5/F2JD tnx cu 73 0430Z 2017-03-08 04:30:00
DXC DX de SV8BHN: 1821.0 HR5/F2JD EU pse 0359Z 2017-03-08 03:59:00
DXC DX de KE7B: 1821.0 HR5/F2JD Vy light cpy, quiet band, tnx QSO 2017-03-08 03:56:00
DXC DX de SV8BHN: 1821.0 HR5/F2JD lsn EU pse 0348Z 2017-03-08 03:48:00
DXC DX de WB4IUY: 1821.0 HR5/F2JD QSX +1 0342Z 2017-03-08 03:42:00
DXC DX de K9OM: 1820.9 HR5/F2JD CW 0312Z 2017-03-08 03:12:00
DXC DX de W3LPL: 1822.0 HR5/F2JD Heard in KS and CO 0259Z 2017-03-08 02:59:00
DXC DX de NY3B: 1820.9 HR5/F2JD CW 0256Z 2017-03-08 02:56:00
DXC DX de VA2WA: 1820.9 HR5/F2JD 0252Z 2017-03-08 02:52:00
DXC DX de KQ5M: 1821.0 HR5/F2JD 0252Z 2017-03-08 02:52:00
DXC DX de W3LPL: 1821.0 HR5/F2JD Heard in CO and KS 0251Z 2017-03-08 02:51:00